Date,TemperatureHighF,TemperatureAvgF,TemperatureLowF,DewpointHighF,DewpointAvgF,DewpointLowF,HumidityHigh,HumidityAvg,HumidityLow,PressureMaxIn,PressureMinIn,WindSpeedMaxMPH,WindSpeedAvgMPH,GustSpeedMaxMPH,PrecipitationSumIn
2013-10-1,86.4,64.7,49.3,58.8,48.8,41.1,81,59,29,29.89,29.65,13,3,20,0.00
2013-10-2,74.7,62.8,48.0,46.4,38.4,31.1,72,44,24,30.04,29.71,10,2,13,0.00
2013-10-3,67.8,57.0,48.7,45.0,39.1,35.8,72,52,33,30.06,29.68,21,3,25,0.04
2013-10-4,67.3,56.9,46.6,46.7,40.1,36.3,73,55,35,30.18,30.04,11,3,12,0.00
2013-10-5,79.5,61.7,42.6,53.7,42.0,32.1,91,55,23,30.12,29.80,8,2,10,0.00
2013-10-6,85.5,66.9,46.6,50.0,38.9,30.2,76,42,16,29.89,29.56,10,2,12,0.00
2013-10-7,71.1,62.8,53.8,49.8,43.2,35.8,62,49,36,29.92,29.62,13,3,15,0.00
2013-10-8,71.4,61.2,50.4,53.0,46.4,36.9,85,61,30,30.12,29.89,13,2,17,0.00
2013-10-9,80.6,62.8,44.8,53.8,42.5,32.1,89,55,22,30.12,29.86,9,2,12,0.00
2013-10-10,89.1,69.7,47.5,51.4,39.5,32.1,76,40,16,29.95,29.56,12,3,19,0.00
2013-10-11,72.7,66.4,57.9,58.6,51.1,38.5,80,59,34,30.01,29.56,14,3,18,0.00
2013-10-12,84.4,66.0,47.8,58.2,48.8,36.1,92,60,20,30.04,29.71,9,2,13,0.00
2013-10-13,91.4,75.5,57.2,60.5,46.0,26.8,90,45,10,29.77,29.36,15,4,20,0.00
2013-10-14,70.3,61.5,54.1,58.8,42.3,34.6,82,51,29,30.09,29.62,9,2,13,0.12
2013-10-15,73.0,58.2,41.5,43.8,36.3,28.8,79,49,24,30.18,29.98,9,2,13,0.00
2013-10-16,80.1,62.6,42.3,44.0,36.2,27.6,76,43,18,30.09,29.80,10,2,15,0.00
2013-10-17,89.8,69.9,48.7,49.7,38.1,23.0,73,37,11,29.89,29.56,16,4,25,0.00
2013-10-18,67.6,62.5,54.1,44.8,34.6,21.3,62,37,22,30.30,29.98,13,4,15,0.00
2013-10-19,73.4,59.7,43.7,53.8,44.5,36.6,88,60,34,30.33,30.15,9,2,12,0.00
2013-10-20,84.7,68.2,51.3,60.3,51.5,40.3,93,61,23,30.18,29.95,8,2,12,0.00
2013-10-21,90.5,73.1,55.0,61.6,50.0,41.4,87,52,20,30.06,29.83,9,2,15,0.00
2013-10-22,86.5,73.3,61.7,63.1,57.9,52.4,77,60,41,30.01,29.86,7,1,10,0.00
2013-10-23,91.9,79.2,67.3,61.1,49.9,31.3,80,42,16,29.86,29.56,14,3,20,0.00
2013-10-24,78.6,68.8,58.1,44.1,35.8,24.0,58,32,16,30.04,29.77,12,3,13,0.00
2013-10-25,75.2,60.3,43.0,43.7,32.9,22.1,61,38,21,30.15,29.95,9,2,10,0.00
2013-10-26,73.9,60.0,45.1,49.1,41.4,32.4,80,55,23,30.12,29.98,11,2,12,0.00
2013-10-27,75.6,62.4,48.6,55.3,47.8,40.1,89,62,30,30.18,30.04,8,2,11,0.00
2013-10-28,79.9,66.2,54.5,57.8,51.6,45.8,88,62,31,30.12,29.86,6,1,10,0.00
2013-10-29,85.1,63.1,52.3,58.8,53.6,46.2,89,74,32,30.04,29.68,22,4,30,0.54
2013-10-30,70.3,62.2,56.7,53.3,49.1,44.5,82,64,42,30.15,30.04,13,4,16,0.00
2013-10-31,77.4,62.0,47.5,56.5,48.2,42.9,94,64,33,30.24,30.04,8,2,11,0.00